Terminal Aerodrome Forecast
Issued by NWS

Current Version | Previous Version | Text Only | Print | Product List | Glossary Off
Versions: 1 2 3 4 5 6 7 8 9 10 11 12 13 14 15 16 17 18 19 20 21 22 23 24 25 26 27 28 29 30 31 32 33 34 35 36 37 38 39 40 41 42 43 44 45 46

000
FTUS41 KRNK 181342 AAB
TAFLWB
TAF AMD
KLWB 181342Z 1814/1912 00000KT P6SM SCT002 OVC035
     FM181630 VRB03KT P6SM BKN045
     FM182300 00000KT P6SM SCT050 SCT100
     FM190600 00000KT 4SM BR SCT005 SCT035
     FM190900 00000KT 1/4SM FG BKN001 OVC015=

USA.gov is the U.S. government's official web portal to all federal, state and local government web resources and services.